Wilson Gdynia — 8PSA — position and weather

sailwx.info

Track history (hours):
 
Tides and Currents Weather Stations Pressure Air Temp Water Temp Dewpoint Dewpoint Depression Visibility Wind Speed Wind Dir Waves Ship Positions

Wilson Gdynia

Last reported at 2015-May-24 21:09 UTC. Time now 2015-May-25 01:31 UTC.
Position N 59°16' E 004°39'.

Length 88 m; draft 5.1 m.

Type: Cargo ship. MMSI: 314192000.

Date/timePositionNaut miles runAvg speedWind from/ knotsBaromVisibWave heightAir tempDewpointWater temp
2015-May-24 21:09N 59°16' E 004°39'302 7.8
2015-May-23 06:19N 54°14' E 004°59'38 7.4
2015-May-23 01:07N 53°36' E 004°49'5 7.9
2015-May-23 00:29N 53°31' E 004°46'10 8.3
2015-May-22 23:20N 53°22' E 004°40'7 8.8
2015-May-22 22:33N 53°16' E 004°36'9 9.3
2015-May-22 21:33N 53°08' E 004°29'1010.1
2015-May-22 20:33N 52°59' E 004°20'1010.4
2015-May-22 19:33N 52°50' E 004°13'1110.5
2015-May-22 18:32N 52°41' E 004°03'1010.5
2015-May-22 17:33N 52°32' E 003°56'1010.4
2015-May-22 16:33N 52°21' E 003°52'9 9.4
2015-May-22 15:33N 52°12' E 003°54'9 8.8
2015-May-22 14:33N 52°03' E 003°54'9 8.9
2015-May-22 13:34N 51°59' E 004°07'8 8.4
2015-May-22 12:33N 51°53' E 004°17'0 0.2
2015-May-22 11:31N 51°53' E 004°16'0 0.0
2015-May-22 10:28N 51°53' E 004°16'0 0.0
2015-May-22 09:31N 51°53' E 004°16'0 0.0
2015-May-22 08:22N 51°53' E 004°16'0 0.0
2015-May-22 07:31N 51°53' E 004°16'0 0.0
2015-May-22 06:31N 51°53' E 004°16'0 0.0
2015-May-22 05:31N 51°53' E 004°16'0 0.0
2015-May-22 04:22N 51°53' E 004°16'0 0.0
2015-May-22 03:31N 51°53' E 004°16'0 0.0
2015-May-22 02:25N 51°53' E 004°16'0 0.0
2015-May-22 01:31N 51°53' E 004°16'0 0.0
2015-May-22 00:31N 51°53' E 004°16'0 0.0
2015-May-21 23:31N 51°53' E 004°16'0 0.0
2015-May-21 22:28N 51°53' E 004°16'0 0.0
2015-May-21 21:28N 51°53' E 004°16'0 0.0
2015-May-21 20:31N 51°53' E 004°16'0 0.0
2015-May-21 19:31N 51°53' E 004°16'0 0.0
2015-May-21 18:31N 51°53' E 004°16'0 0.1
2015-May-21 17:33N 51°53' E 004°17'4 4.5
2015-May-21 16:33N 51°54' E 004°24'3 2.8
2015-May-21 15:31N 51°54' E 004°28'0 0.0
2015-May-21 14:31N 51°54' E 004°28'0 0.0
2015-May-21 13:31N 51°54' E 004°28'0 0.0
2015-May-21 12:31N 51°54' E 004°28'0 0.0
2015-May-21 11:31N 51°54' E 004°28'0 0.0
2015-May-21 10:31N 51°54' E 004°28'0 0.0
2015-May-21 09:31N 51°54' E 004°28'0 0.0
2015-May-21 08:31N 51°54' E 004°28'0 0.0
2015-May-21 07:31N 51°54' E 004°28'0 0.0
2015-May-21 06:31N 51°54' E 004°28'0 0.0
2015-May-21 05:31N 51°54' E 004°28'0 0.0
2015-May-21 04:31N 51°54' E 004°28'0 0.0
2015-May-21 03:31N 51°54' E 004°28'0 0.0
2015-May-21 02:31N 51°54' E 004°28'0 0.0
2015-May-21 01:31N 51°54' E 004°28'0 0.0
2015-May-21 00:31N 51°54' E 004°28'0 0.0
2015-May-20 23:28N 51°54' E 004°28'0 0.0
2015-May-20 22:31N 51°54' E 004°28'0 0.0
2015-May-20 21:31N 51°54' E 004°28'0 0.0
2015-May-20 20:31N 51°54' E 004°28'0 0.0
2015-May-20 19:31N 51°54' E 004°28'0 0.0
2015-May-20 18:31N 51°54' E 004°28'0 0.0
2015-May-20 17:31N 51°54' E 004°28'0 0.0
2015-May-20 16:31N 51°54' E 004°28'0 0.0
2015-May-20 15:31N 51°54' E 004°28'0 0.0
2015-May-20 14:31N 51°54' E 004°28'0 0.0
2015-May-20 13:31N 51°54' E 004°28'0 0.0
2015-May-20 12:31N 51°54' E 004°28'0 0.0
2015-May-20 11:31N 51°54' E 004°28'0 0.0
2015-May-20 10:32N 51°54' E 004°28'5 5.4
2015-May-20 09:33N 51°54' E 004°20'8 8.0
2015-May-20 08:33N 51°58' E 004°09'8 8.2
2015-May-20 07:33N 52°00' E 003°56'8 7.5
2015-May-20 06:30N 52°06' E 003°47'11 9.8
2015-May-20 05:22N 52°17' E 003°47'7 8.2
2015-May-20 04:30N 52°23' E 003°52'8 8.7
2015-May-20 03:33N 52°26' E 004°05'8 8.3
2015-May-20 02:33N 52°27' E 004°18'8 8.4
2015-May-20 01:33N 52°28' E 004°32'3 3.1
2015-May-20 00:33N 52°28' E 004°37'8 7.9
2015-May-19 23:33N 52°25' E 004°49'0 0.0
2015-May-19 22:33N 52°25' E 004°49'0 0.0
2015-May-19 21:33N 52°25' E 004°49'0 0.0
2015-May-19 20:33N 52°25' E 004°49'0 0.0
2015-May-19 19:29N 52°25' E 004°49'0 0.0
2015-May-19 18:32N 52°25' E 004°49'0 0.0
2015-May-19 17:29N 52°25' E 004°49'0 0.0
2015-May-19 16:32N 52°25' E 004°49'0 0.0
2015-May-19 15:23N 52°25' E 004°49'0 0.0
2015-May-19 14:26N 52°25' E 004°49'0 0.0
2015-May-19 13:32N 52°25' E 004°49'0 0.2
2015-May-19 12:32N 52°25' E 004°49'0 0.0
2015-May-19 11:32N 52°25' E 004°49'1 0.8
2015-May-19 10:33N 52°25' E 004°49'8 8.1
2015-May-19 09:33N 52°28' E 004°36'5 5.2
2015-May-19 08:33N 52°29' E 004°28'62 6.6
2015-May-18 23:09N 53°31' E 004°36'6 8.5
2015-May-18 22:30N 53°37' E 004°40'21 6.8
2015-May-18 19:23N 53°57' E 004°48'5 6.2
2015-May-18 18:33N 54°02' E 004°49'6 5.8
2015-May-18 17:33N 54°08' E 004°51'284 9.2
2015-May-17 10:33N 58°52' E 004°44'9 8.8
2015-May-17 09:33N 59°01' E 004°42'9 8.5
2015-May-17 08:33N 59°10' E 004°40'299 8.0
2015-May-15 19:11N 63°35' E 009°26'6 9.9
2015-May-15 18:33N 63°38' E 009°37'7 7.2
2015-May-15 17:33N 63°34' E 009°51'8 8.4
2015-May-15 16:33N 63°29' E 010°05'1010.2
2015-May-15 15:33N 63°34' E 010°26'10 9.8
2015-May-15 14:33N 63°39' E 010°44'1010.2
2015-May-15 13:33N 63°47' E 011°00'  
Track history (hours):
 
Tides and Currents Weather Stations Pressure Air Temp Water Temp Dewpoint Dewpoint Depression Visibility Wind Speed Wind Dir Waves Ship Positions

Wilson Gdynia

Last reported at 2015-May-24 21:09 UTC. Time now 2015-May-25 01:31 UTC.
Position N 59°16' E 004°39'.

Length 88 m; draft 5.1 m.

Type: Cargo ship. MMSI: 314192000.

Date/timePositionNaut miles runAvg speedWind from/ knotsBaromVisibWave heightAir tempDewpointWater temp
2015-May-24 21:09N 59°16' E 004°39'302 7.8
2015-May-23 06:19N 54°14' E 004°59'38 7.4
2015-May-23 01:07N 53°36' E 004°49'5 7.9
2015-May-23 00:29N 53°31' E 004°46'10 8.3
2015-May-22 23:20N 53°22' E 004°40'7 8.8
2015-May-22 22:33N 53°16' E 004°36'9 9.3
2015-May-22 21:33N 53°08' E 004°29'1010.1
2015-May-22 20:33N 52°59' E 004°20'1010.4
2015-May-22 19:33N 52°50' E 004°13'1110.5
2015-May-22 18:32N 52°41' E 004°03'1010.5
2015-May-22 17:33N 52°32' E 003°56'1010.4
2015-May-22 16:33N 52°21' E 003°52'9 9.4
2015-May-22 15:33N 52°12' E 003°54'9 8.8
2015-May-22 14:33N 52°03' E 003°54'9 8.9
2015-May-22 13:34N 51°59' E 004°07'8 8.4
2015-May-22 12:33N 51°53' E 004°17'0 0.2
2015-May-22 11:31N 51°53' E 004°16'0 0.0
2015-May-22 10:28N 51°53' E 004°16'0 0.0
2015-May-22 09:31N 51°53' E 004°16'0 0.0
2015-May-22 08:22N 51°53' E 004°16'0 0.0
2015-May-22 07:31N 51°53' E 004°16'0 0.0
2015-May-22 06:31N 51°53' E 004°16'0 0.0
2015-May-22 05:31N 51°53' E 004°16'0 0.0
2015-May-22 04:22N 51°53' E 004°16'0 0.0
2015-May-22 03:31N 51°53' E 004°16'0 0.0
2015-May-22 02:25N 51°53' E 004°16'0 0.0
2015-May-22 01:31N 51°53' E 004°16'0 0.0
2015-May-22 00:31N 51°53' E 004°16'0 0.0
2015-May-21 23:31N 51°53' E 004°16'0 0.0
2015-May-21 22:28N 51°53' E 004°16'0 0.0
2015-May-21 21:28N 51°53' E 004°16'0 0.0
2015-May-21 20:31N 51°53' E 004°16'0 0.0
2015-May-21 19:31N 51°53' E 004°16'0 0.0
2015-May-21 18:31N 51°53' E 004°16'0 0.1
2015-May-21 17:33N 51°53' E 004°17'4 4.5
2015-May-21 16:33N 51°54' E 004°24'3 2.8
2015-May-21 15:31N 51°54' E 004°28'0 0.0
2015-May-21 14:31N 51°54' E 004°28'0 0.0
2015-May-21 13:31N 51°54' E 004°28'0 0.0
2015-May-21 12:31N 51°54' E 004°28'0 0.0
2015-May-21 11:31N 51°54' E 004°28'0 0.0
2015-May-21 10:31N 51°54' E 004°28'0 0.0
2015-May-21 09:31N 51°54' E 004°28'0 0.0
2015-May-21 08:31N 51°54' E 004°28'0 0.0
2015-May-21 07:31N 51°54' E 004°28'0 0.0
2015-May-21 06:31N 51°54' E 004°28'0 0.0
2015-May-21 05:31N 51°54' E 004°28'0 0.0
2015-May-21 04:31N 51°54' E 004°28'0 0.0
2015-May-21 03:31N 51°54' E 004°28'0 0.0
2015-May-21 02:31N 51°54' E 004°28'0 0.0
2015-May-21 01:31N 51°54' E 004°28'0 0.0
2015-May-21 00:31N 51°54' E 004°28'0 0.0
2015-May-20 23:28N 51°54' E 004°28'0 0.0
2015-May-20 22:31N 51°54' E 004°28'0 0.0
2015-May-20 21:31N 51°54' E 004°28'0 0.0
2015-May-20 20:31N 51°54' E 004°28'0 0.0
2015-May-20 19:31N 51°54' E 004°28'0 0.0
2015-May-20 18:31N 51°54' E 004°28'0 0.0
2015-May-20 17:31N 51°54' E 004°28'0 0.0
2015-May-20 16:31N 51°54' E 004°28'0 0.0
2015-May-20 15:31N 51°54' E 004°28'0 0.0
2015-May-20 14:31N 51°54' E 004°28'0 0.0
2015-May-20 13:31N 51°54' E 004°28'0 0.0
2015-May-20 12:31N 51°54' E 004°28'0 0.0
2015-May-20 11:31N 51°54' E 004°28'0 0.0
2015-May-20 10:32N 51°54' E 004°28'5 5.4
2015-May-20 09:33N 51°54' E 004°20'8 8.0
2015-May-20 08:33N 51°58' E 004°09'8 8.2
2015-May-20 07:33N 52°00' E 003°56'8 7.5
2015-May-20 06:30N 52°06' E 003°47'11 9.8
2015-May-20 05:22N 52°17' E 003°47'7 8.2
2015-May-20 04:30N 52°23' E 003°52'8 8.7
2015-May-20 03:33N 52°26' E 004°05'8 8.3
2015-May-20 02:33N 52°27' E 004°18'8 8.4
2015-May-20 01:33N 52°28' E 004°32'3 3.1
2015-May-20 00:33N 52°28' E 004°37'8 7.9
2015-May-19 23:33N 52°25' E 004°49'0 0.0
2015-May-19 22:33N 52°25' E 004°49'0 0.0
2015-May-19 21:33N 52°25' E 004°49'0 0.0
2015-May-19 20:33N 52°25' E 004°49'0 0.0
2015-May-19 19:29N 52°25' E 004°49'0 0.0
2015-May-19 18:32N 52°25' E 004°49'0 0.0
2015-May-19 17:29N 52°25' E 004°49'0 0.0
2015-May-19 16:32N 52°25' E 004°49'0 0.0
2015-May-19 15:23N 52°25' E 004°49'0 0.0
2015-May-19 14:26N 52°25' E 004°49'0 0.0
2015-May-19 13:32N 52°25' E 004°49'0 0.2
2015-May-19 12:32N 52°25' E 004°49'0 0.0
2015-May-19 11:32N 52°25' E 004°49'1 0.8
2015-May-19 10:33N 52°25' E 004°49'8 8.1
2015-May-19 09:33N 52°28' E 004°36'5 5.2
2015-May-19 08:33N 52°29' E 004°28'62 6.6
2015-May-18 23:09N 53°31' E 004°36'6 8.5
2015-May-18 22:30N 53°37' E 004°40'21 6.8
2015-May-18 19:23N 53°57' E 004°48'5 6.2
2015-May-18 18:33N 54°02' E 004°49'6 5.8
2015-May-18 17:33N 54°08' E 004°51'284 9.2
2015-May-17 10:33N 58°52' E 004°44'9 8.8
2015-May-17 09:33N 59°01' E 004°42'9 8.5
2015-May-17 08:33N 59°10' E 004°40'299 8.0
2015-May-15 19:11N 63°35' E 009°26'6 9.9
2015-May-15 18:33N 63°38' E 009°37'7 7.2
2015-May-15 17:33N 63°34' E 009°51'8 8.4
2015-May-15 16:33N 63°29' E 010°05'1010.2
2015-May-15 15:33N 63°34' E 010°26'10 9.8
2015-May-15 14:33N 63°39' E 010°44'1010.2
2015-May-15 13:33N 63°47' E 011°00'  

Dump ship's entire track history